createdAt,value
2019-03-03T00:03:32.595Z,99861.95
2019-03-03T00:07:39.555Z,99870.93
2019-03-03T00:11:46.546Z,99887.61
2019-03-03T00:15:54.449Z,99888.62
2019-03-03T00:20:01.347Z,99890.45
2019-03-03T00:24:09.084Z,99891.28
2019-03-03T00:28:15.898Z,99893.78
2019-03-03T00:32:22.787Z,99897.36
2019-03-03T00:36:48.568Z,99902.29
2019-03-03T00:41:26.414Z,99895.96
2019-03-03T00:45:40.216Z,99899.22
2019-03-03T00:50:05.560Z,99895.04
2019-03-03T00:54:29.957Z,99887.59
2019-03-03T00:58:52.102Z,99894.66
2019-03-03T01:03:16.391Z,99890.16
2019-03-03T01:07:35.754Z,99890.10
2019-03-03T01:11:52.054Z,99889.66
2019-03-03T01:16:33.251Z,99884.75
2019-03-03T01:21:17.426Z,99875.31
2019-03-03T01:25:24.305Z,99877.84
2019-03-03T01:29:31.463Z,99868.58
2019-03-03T01:33:38.361Z,99873.87
2019-03-03T01:37:45.352Z,99873.69
2019-03-03T01:41:52.297Z,99870.61
2019-03-03T01:45:59.168Z,99858.63
2019-03-03T01:50:07.639Z,99862.77
2019-03-03T01:54:14.492Z,99854.44
2019-03-03T01:58:21.384Z,99862.90
2019-03-03T02:02:28.486Z,99850.77
2019-03-03T02:06:35.367Z,99849.75
2019-03-03T02:10:42.257Z,99834.47
2019-03-03T02:14:49.146Z,99826.02
2019-03-03T02:18:56.103Z,99824.73
2019-03-03T02:23:03.151Z,99819.83
2019-03-03T02:27:10.008Z,99814.62
2019-03-03T02:31:16.896Z,99816.54
2019-03-03T02:35:24.085Z,99815.65
2019-03-03T02:39:30.937Z,99817.91
2019-03-03T02:43:41.563Z,99808.13
2019-03-03T02:47:48.492Z,99814.73
2019-03-03T02:51:57.483Z,99816.58
2019-03-03T02:56:04.322Z,99815.48
2019-03-03T03:00:19.030Z,99823.20
2019-03-03T03:04:26.619Z,99811.37
2019-03-03T03:08:37.972Z,99803.73
2019-03-03T03:12:59.605Z,99791.53
2019-03-03T03:17:14.260Z,99783.29
2019-03-03T03:21:46.200Z,99780.00
2019-03-03T03:26:10.866Z,99777.58
2019-03-03T03:30:29.560Z,99778.39
2019-03-03T03:34:48.080Z,99772.80
2019-03-03T03:39:08.319Z,99768.31
2019-03-03T03:43:34.083Z,99763.23
2019-03-03T03:48:00.458Z,99755.50
2019-03-03T03:52:41.812Z,99755.59
2019-03-03T03:57:25.772Z,99750.81
2019-03-03T04:01:51.489Z,99750.60
2019-03-03T04:06:17.252Z,99758.58
2019-03-03T04:10:31.072Z,99754.27
2019-03-03T04:14:46.347Z,99736.56
2019-03-03T04:19:21.127Z,99739.92
2019-03-03T04:23:45.700Z,99733.44
2019-03-03T04:27:58.918Z,99739.84
2019-03-03T04:32:23.183Z,99738.91
2019-03-03T04:36:42.089Z,99726.09
2019-03-03T04:40:54.100Z,99725.59
2019-03-03T04:45:19.900Z,99711.42
2019-03-03T04:49:44.581Z,99707.67
2019-03-03T04:54:16.027Z,99711.11
2019-03-03T04:58:38.680Z,99710.31
2019-03-03T05:03:03.259Z,99706.34
2019-03-03T05:07:14.381Z,99687.22
2019-03-03T05:12:33.969Z,99689.53
2019-03-03T05:16:56.976Z,99687.11
2019-03-03T05:21:03.987Z,99674.09
2019-03-03T05:25:10.899Z,99677.64
2019-03-03T05:29:17.715Z,99678.88
2019-03-03T05:33:24.552Z,99672.86
2019-03-03T05:37:31.468Z,99668.89
2019-03-03T05:41:38.508Z,99661.77
2019-03-03T05:45:45.394Z,99649.87
2019-03-03T05:49:52.264Z,99647.30
2019-03-03T05:53:59.088Z,99656.78
2019-03-03T05:58:05.929Z,99660.95
2019-03-03T06:02:12.783Z,99648.84
2019-03-03T06:06:19.681Z,99649.05
2019-03-03T06:10:27.646Z,99637.14
2019-03-03T06:14:36.541Z,99639.91
2019-03-03T06:18:43.419Z,99622.30
2019-03-03T06:22:50.308Z,99614.66
2019-03-03T06:26:57.149Z,99623.72
2019-03-03T06:31:03.967Z,99642.64
2019-03-03T06:35:11.251Z,99639.17
2019-03-03T06:39:18.086Z,99640.09
2019-03-03T06:43:24.968Z,99647.33
2019-03-03T06:47:31.771Z,99660.13
2019-03-03T06:51:39.738Z,99663.19
2019-03-03T06:55:46.612Z,99665.11
2019-03-03T06:59:53.521Z,99668.39
2019-03-03T07:04:00.426Z,99660.23
2019-03-03T07:08:07.303Z,99651.69
2019-03-03T07:12:14.235Z,99648.73
2019-03-03T07:16:21.041Z,99665.12
2019-03-03T07:20:27.935Z,99656.78
2019-03-03T07:24:39.305Z,99668.58
2019-03-03T07:28:46.391Z,99674.78
2019-03-03T07:33:13.558Z,99661.45
2019-03-03T07:37:20.480Z,99672.53
2019-03-03T07:41:27.348Z,99667.34
2019-03-03T07:45:34.341Z,99665.31
2019-03-03T07:49:41.400Z,99658.41
2019-03-03T07:53:48.451Z,99674.78
2019-03-03T07:57:55.294Z,99665.83
2019-03-03T08:02:02.198Z,99673.76
2019-03-03T08:06:09.224Z,99676.70
2019-03-03T08:10:17.353Z,99675.06
2019-03-03T08:14:30.381Z,99664.91
2019-03-03T08:18:38.863Z,99675.28
2019-03-03T08:22:45.882Z,99668.95
2019-03-03T08:26:52.898Z,99672.52
2019-03-03T08:31:01.040Z,99658.78
2019-03-03T08:35:10.770Z,99665.70
2019-03-03T08:39:18.876Z,99660.48
2019-03-03T08:43:53.568Z,99654.80
2019-03-03T08:48:14.873Z,99665.48
2019-03-03T08:52:49.543Z,99656.73
2019-03-03T08:57:21.361Z,99662.95
2019-03-03T09:01:48.021Z,99657.12
2019-03-03T09:06:17.192Z,99669.34
2019-03-03T09:10:52.118Z,99660.25
2019-03-03T09:15:25.002Z,99662.25
2019-03-03T09:19:43.318Z,99658.83
2019-03-03T09:24:26.355Z,99656.88
2019-03-03T09:28:58.357Z,99655.04
2019-03-03T09:33:33.026Z,99637.42
2019-03-03T09:37:54.521Z,99642.76
2019-03-03T09:42:17.333Z,99645.66
2019-03-03T09:46:46.239Z,99629.58
2019-03-03T09:51:13.609Z,99629.28
2019-03-03T09:55:29.324Z,99635.02
2019-03-03T09:59:46.226Z,99642.20
2019-03-03T10:04:08.881Z,99642.73
2019-03-03T10:08:24.374Z,99647.05
2019-03-03T10:12:50.104Z,99628.49
2019-03-03T10:17:14.437Z,99630.27
2019-03-03T10:21:38.822Z,99625.09
2019-03-03T10:26:04.607Z,99616.72
2019-03-03T10:30:35.435Z,99629.06
2019-03-03T10:34:59.886Z,99621.72
2019-03-03T10:39:16.044Z,99629.03
2019-03-03T10:43:37.779Z,99618.77
2019-03-03T10:48:06.630Z,99615.24
2019-03-03T10:52:20.309Z,99609.93
2019-03-03T10:56:39.612Z,99615.56
2019-03-03T11:01:13.501Z,99601.52
2019-03-03T11:05:37.682Z,99608.55
2019-03-03T11:10:12.546Z,99597.34
2019-03-03T11:14:25.956Z,99595.55
2019-03-03T11:18:57.929Z,99587.38
2019-03-03T11:23:18.328Z,99595.66
2019-03-03T11:27:47.202Z,99589.81
2019-03-03T11:32:15.944Z,99591.50
2019-03-03T11:36:58.507Z,99579.03
2019-03-03T11:41:24.670Z,99574.18
2019-03-03T11:45:49.507Z,99558.11
2019-03-03T11:50:05.083Z,99559.17
2019-03-03T11:54:26.012Z,99568.85
2019-03-03T11:58:49.602Z,99534.31
2019-03-03T12:03:30.698Z,99556.42
2019-03-03T12:07:55.163Z,99550.63
2019-03-03T12:12:30.331Z,99555.56
2019-03-03T12:16:47.214Z,99549.59
2019-03-03T12:21:22.455Z,99538.30
2019-03-03T12:25:51.229Z,99536.11
2019-03-03T12:30:25.877Z,99529.84
2019-03-03T12:34:45.582Z,99525.14
2019-03-03T12:39:20.663Z,99504.94
2019-03-03T12:43:46.423Z,99529.66
2019-03-03T12:48:12.299Z,99524.36
2019-03-03T12:52:26.991Z,99511.16
2019-03-03T12:56:52.732Z,99496.98
2019-03-03T13:01:24.555Z,99502.38
2019-03-03T13:05:53.276Z,99500.68
2019-03-03T13:10:24.899Z,99496.18
2019-03-03T13:14:42.371Z,99485.17
2019-03-03T13:19:17.132Z,99478.77
2019-03-03T13:23:37.796Z,99471.94
2019-03-03T13:27:52.438Z,99465.58
2019-03-03T13:32:18.310Z,99453.55
2019-03-03T13:36:47.345Z,99447.41
2019-03-03T13:41:14.233Z,99442.13
2019-03-03T13:45:21.278Z,99435.39
2019-03-03T13:49:28.486Z,99427.29
2019-03-03T13:53:35.445Z,99427.39
2019-03-03T13:57:45.794Z,99427.02
2019-03-03T14:01:52.746Z,99423.14
2019-03-03T14:05:59.994Z,99424.70
2019-03-03T14:10:08.718Z,99423.22
2019-03-03T14:14:16.053Z,99420.16
2019-03-03T14:18:22.982Z,99415.70
2019-03-03T14:22:30.197Z,99365.14
2019-03-03T14:26:37.125Z,99392.90
2019-03-03T14:30:44.140Z,99398.10
2019-03-03T14:34:51.396Z,99380.11
2019-03-03T14:38:58.815Z,99373.84
2019-03-03T14:43:09.853Z,99362.72
2019-03-03T14:47:18.050Z,99368.09
2019-03-03T14:51:25.229Z,99345.38
2019-03-03T14:55:32.351Z,99356.98
2019-03-03T14:59:39.328Z,99346.91
2019-03-03T15:03:46.843Z,99341.31
2019-03-03T15:07:56.231Z,99330.56
2019-03-03T15:12:03.295Z,99324.63
2019-03-03T15:16:10.340Z,99341.42
2019-03-03T15:20:18.380Z,99333.22
2019-03-03T15:24:25.852Z,99336.76
2019-03-03T15:28:32.738Z,99328.91
2019-03-03T15:32:39.835Z,99338.69
2019-03-03T15:36:47.359Z,99342.73
2019-03-03T15:40:54.466Z,99338.09
2019-03-03T15:45:03.373Z,99320.00
2019-03-03T15:49:10.567Z,99330.63
2019-03-03T15:53:17.967Z,99300.77
2019-03-03T15:57:25.080Z,99317.52
2019-03-03T16:01:32.271Z,99314.03
2019-03-03T16:05:39.544Z,99305.84
2019-03-03T16:09:46.896Z,99321.41
2019-03-03T16:13:53.912Z,99324.66
2019-03-03T16:18:01.043Z,99310.45
2019-03-03T16:22:08.479Z,99293.71
2019-03-03T16:26:19.063Z,99285.66
2019-03-03T16:30:27.276Z,99298.96
2019-03-03T16:34:34.157Z,99272.27
2019-03-03T16:38:41.523Z,99259.88
2019-03-03T16:42:48.852Z,99255.08
2019-03-03T16:46:57.340Z,99247.92
2019-03-03T16:51:04.476Z,99250.39
2019-03-03T16:55:13.279Z,99253.05
2019-03-03T16:59:20.417Z,99254.69
2019-03-03T17:03:27.647Z,99251.24
2019-03-03T17:07:34.791Z,99247.86
2019-03-03T17:11:41.911Z,99247.42
2019-03-03T17:15:48.871Z,99246.25
2019-03-03T17:19:56.016Z,99252.33
2019-03-03T17:24:03.554Z,99254.34
2019-03-03T17:28:10.483Z,99249.91
2019-03-03T17:32:17.471Z,99240.50
2019-03-03T17:36:24.570Z,99254.10
2019-03-03T17:40:31.584Z,99245.69
2019-03-03T17:44:38.484Z,99243.40
2019-03-03T17:48:45.716Z,99234.27
2019-03-03T17:52:52.994Z,99226.30
2019-03-03T17:56:59.910Z,99221.44
2019-03-03T18:01:07.980Z,99226.30
2019-03-03T18:05:17.479Z,99229.77
2019-03-03T18:09:24.908Z,99226.87
2019-03-03T18:13:32.099Z,99212.14
2019-03-03T18:17:39.227Z,99204.89
2019-03-03T18:21:46.537Z,99203.56
2019-03-03T18:25:53.494Z,99196.41
2019-03-03T18:30:02.633Z,99192.06
2019-03-03T18:34:09.957Z,99185.55
2019-03-03T18:38:17.961Z,99177.94
2019-03-03T18:42:25.232Z,99178.34
2019-03-03T18:46:32.467Z,99169.66
2019-03-03T18:50:39.491Z,99166.55
2019-03-03T18:54:47.483Z,99156.63
2019-03-03T18:58:54.480Z,99153.80
2019-03-03T19:03:01.613Z,99153.84
2019-03-03T19:07:09.026Z,99147.03
2019-03-03T19:11:16.102Z,99141.89
2019-03-03T19:15:23.428Z,99146.27
2019-03-03T19:19:30.274Z,99137.41
2019-03-03T19:23:39.075Z,99145.47
2019-03-03T19:27:46.112Z,99128.55
2019-03-03T19:31:53.055Z,99130.34
2019-03-03T19:36:00.148Z,99118.70
2019-03-03T19:40:09.681Z,99121.41
2019-03-03T19:44:17.920Z,99113.84
2019-03-03T19:48:25.327Z,99120.23
2019-03-03T19:52:32.326Z,99112.80
2019-03-03T19:56:42.121Z,99109.18
2019-03-03T20:00:56.657Z,99110.91
2019-03-03T20:05:03.761Z,99100.34
2019-03-03T20:09:14.409Z,99093.98
2019-03-03T20:13:21.565Z,99093.36
2019-03-03T20:17:31.399Z,99074.45
2019-03-03T20:21:38.546Z,99071.34
2019-03-03T20:25:45.696Z,99070.83
2019-03-03T20:29:54.592Z,99062.02
2019-03-03T20:34:01.731Z,99058.14
2019-03-03T20:38:12.875Z,99051.98
2019-03-03T20:42:20.021Z,99053.73
2019-03-03T20:46:27.004Z,99035.88
2019-03-03T20:50:34.133Z,99026.59
2019-03-03T20:54:42.516Z,99019.84
2019-03-03T20:58:49.460Z,99015.38
2019-03-03T21:02:57.316Z,99016.77
2019-03-03T21:07:04.432Z,99007.83
2019-03-03T21:11:12.393Z,99010.06
2019-03-03T21:15:19.242Z,99000.52
2019-03-03T21:19:26.386Z,98994.52
2019-03-03T21:23:33.517Z,98988.58
2019-03-03T21:27:40.659Z,98972.75
2019-03-03T21:31:47.667Z,98968.73
2019-03-03T21:35:54.683Z,98972.71
2019-03-03T21:40:01.654Z,98962.93
2019-03-03T21:44:09.198Z,98948.63
2019-03-03T21:48:16.084Z,98951.39
2019-03-03T21:52:23.300Z,98939.63
2019-03-03T21:56:30.174Z,98928.47
2019-03-03T22:00:39.241Z,98920.54
2019-03-03T22:04:47.124Z,98922.20
2019-03-03T22:08:55.208Z,98904.42
2019-03-03T22:13:07.673Z,98891.85
2019-03-03T22:17:14.770Z,98889.25
2019-03-03T22:21:21.681Z,98882.25
2019-03-03T22:25:46.537Z,98873.34
2019-03-03T22:29:53.547Z,98881.09
2019-03-03T22:34:01.487Z,98867.70
2019-03-03T22:38:08.876Z,98846.34
2019-03-03T22:42:15.866Z,98829.56
2019-03-03T22:46:22.766Z,98831.14
2019-03-03T22:50:31.424Z,98822.31
2019-03-03T22:54:38.276Z,98827.59
2019-03-03T22:58:50.365Z,98819.00
2019-03-03T23:02:57.429Z,98797.68
2019-03-03T23:07:17.639Z,98792.00
2019-03-03T23:11:51.131Z,98785.34
2019-03-03T23:17:00.415Z,98773.91
2019-03-03T23:22:13.192Z,98777.36
2019-03-03T23:26:20.100Z,98779.23
2019-03-03T23:30:27.078Z,98771.53
2019-03-03T23:34:34.073Z,98774.59
2019-03-03T23:38:40.958Z,98771.31
2019-03-03T23:42:47.854Z,98758.97
2019-03-03T23:46:54.758Z,98755.77
2019-03-03T23:51:01.804Z,98757.64
2019-03-03T23:55:08.731Z,98754.23
2019-03-03T23:59:15.672Z,98747.16
